Seneimaru — JG5357 — position and weather

sailwx.info

Track history (hours):
 
Tides and Currents Weather Stations Pressure Air Temp Water Temp Dewpoint Dewpoint Depression Visibility Wind Speed Wind Dir Waves Ship Positions

Seneimaru

Last reported at 2014-Oct-25 07:33 UTC. Time now 2014-Oct-25 23:41 UTC.
Position N 35°12' E 139°46'.

Length 72 m; draft 5.9 m.

Type: Cargo ship. MMSI: 431100477.

Date/timePositionNaut miles runAvg speedWind from/ knotsBaromVisibWave heightAir tempDewpointWater temp
2014-Oct-25 07:33N 35°12' E 139°46'1010.5
2014-Oct-25 06:33N 35°22' E 139°43'9 8.9
2014-Oct-25 05:32N 35°30' E 139°46'3 2.6
2014-Oct-25 04:33N 35°30' E 139°43'0 0.0
2014-Oct-25 03:33N 35°30' E 139°43'0 0.0
2014-Oct-25 02:33N 35°30' E 139°43'0 0.0
2014-Oct-25 01:33N 35°30' E 139°43'0 0.0
2014-Oct-25 00:34N 35°30' E 139°43'0 0.0
2014-Oct-24 23:33N 35°30' E 139°43'0 0.0
2014-Oct-24 22:33N 35°30' E 139°43'4 3.7
2014-Oct-24 21:33N 35°27' E 139°44'6 6.5
2014-Oct-24 20:34N 35°20' E 139°44'1010.2
2014-Oct-24 19:32N 35°10' E 139°47'1 0.0
2014-Oct-23 08:25N 35°11' E 139°46'1011.1
2014-Oct-23 07:33N 35°20' E 139°43'1110.8
2014-Oct-23 06:33N 35°30' E 139°48'4 3.9
2014-Oct-23 05:33N 35°30' E 139°43'0 0.0
2014-Oct-23 04:33N 35°30' E 139°43'0 0.0
2014-Oct-23 03:34N 35°30' E 139°43'0 0.0
2014-Oct-23 02:33N 35°30' E 139°43'4 3.8
2014-Oct-23 01:33N 35°27' E 139°44'7 7.1
2014-Oct-23 00:33N 35°19' E 139°44'10 9.6
2014-Oct-22 23:33N 35°10' E 139°47'5 0.1
2014-Oct-21 08:33N 35°15' E 139°47'1010.2
2014-Oct-21 07:33N 35°25' E 139°43'5 4.9
2014-Oct-21 06:33N 35°30' E 139°43'1 0.6
2014-Oct-21 05:33N 35°30' E 139°43'0 0.0
2014-Oct-21 04:33N 35°30' E 139°43'0 0.0
2014-Oct-21 03:33N 35°30' E 139°43'0 0.0
2014-Oct-21 02:33N 35°30' E 139°43'0 0.0
2014-Oct-21 01:33N 35°30' E 139°43'0 0.0
2014-Oct-21 00:33N 35°30' E 139°43'0 0.0
2014-Oct-20 23:33N 35°30' E 139°43'0 0.0
2014-Oct-20 22:33N 35°30' E 139°43'0 0.0
2014-Oct-20 21:33N 35°30' E 139°43'1 1.4
2014-Oct-20 20:33N 35°29' E 139°42'6 5.9
2014-Oct-20 19:33N 35°23' E 139°45'0 0.0
2014-Oct-20 18:33N 35°23' E 139°45'0 0.0
2014-Oct-20 17:33N 35°23' E 139°45'0 0.0
2014-Oct-20 16:33N 35°23' E 139°45'0 0.1
2014-Oct-20 15:33N 35°23' E 139°45'0 0.0
2014-Oct-20 14:33N 35°23' E 139°45'5 5.1
2014-Oct-20 13:33N 35°18' E 139°44'7 0.2
2014-Oct-19 02:12N 35°11' E 139°46'711.0
2014-Oct-19 01:33N 35°18' E 139°44'10 9.8
2014-Oct-19 00:33N 35°28' E 139°47'4 3.9
2014-Oct-18 23:33N 35°30' E 139°43'0 0.0
2014-Oct-18 22:33N 35°30' E 139°43'0 0.0
2014-Oct-18 21:33N 35°30' E 139°43'0 0.0
2014-Oct-18 20:33N 35°30' E 139°43'5 4.9
2014-Oct-18 19:33N 35°25' E 139°44'2 2.2
2014-Oct-18 18:33N 35°23' E 139°44'0 0.0
2014-Oct-18 17:33N 35°23' E 139°44'0 0.0
2014-Oct-18 16:33N 35°23' E 139°44'0 0.1
2014-Oct-18 15:33N 35°23' E 139°44'8 8.5
2014-Oct-18 14:33N 35°15' E 139°47'4 0.1
2014-Oct-17 04:09N 35°11' E 139°46'711.1
2014-Oct-17 03:33N 35°17' E 139°45'10 9.6
2014-Oct-17 02:33N 35°27' E 139°46'4 4.0
2014-Oct-17 01:33N 35°30' E 139°43'0 0.0
2014-Oct-17 00:33N 35°30' E 139°43'0 0.0
2014-Oct-16 23:33N 35°30' E 139°43'0 0.0
2014-Oct-16 22:33N 35°30' E 139°43'0 0.0
2014-Oct-16 21:33N 35°30' E 139°43'0 0.0
2014-Oct-16 20:33N 35°30' E 139°43'4 4.3
2014-Oct-16 19:33N 35°26' E 139°44'2 2.4
2014-Oct-16 18:32N 35°24' E 139°45'0 0.0
2014-Oct-16 17:32N 35°24' E 139°45'0 0.0
2014-Oct-16 16:32N 35°24' E 139°45'7 7.4
2014-Oct-16 15:33N 35°16' E 139°46'  
Track history (hours):
 
Tides and Currents Weather Stations Pressure Air Temp Water Temp Dewpoint Dewpoint Depression Visibility Wind Speed Wind Dir Waves Ship Positions

Seneimaru

Last reported at 2014-Oct-25 07:33 UTC. Time now 2014-Oct-25 23:41 UTC.
Position N 35°12' E 139°46'.

Length 72 m; draft 5.9 m.

Type: Cargo ship. MMSI: 431100477.

Date/timePositionNaut miles runAvg speedWind from/ knotsBaromVisibWave heightAir tempDewpointWater temp
2014-Oct-25 07:33N 35°12' E 139°46'1010.5
2014-Oct-25 06:33N 35°22' E 139°43'9 8.9
2014-Oct-25 05:32N 35°30' E 139°46'3 2.6
2014-Oct-25 04:33N 35°30' E 139°43'0 0.0
2014-Oct-25 03:33N 35°30' E 139°43'0 0.0
2014-Oct-25 02:33N 35°30' E 139°43'0 0.0
2014-Oct-25 01:33N 35°30' E 139°43'0 0.0
2014-Oct-25 00:34N 35°30' E 139°43'0 0.0
2014-Oct-24 23:33N 35°30' E 139°43'0 0.0
2014-Oct-24 22:33N 35°30' E 139°43'4 3.7
2014-Oct-24 21:33N 35°27' E 139°44'6 6.5
2014-Oct-24 20:34N 35°20' E 139°44'1010.2
2014-Oct-24 19:32N 35°10' E 139°47'1 0.0
2014-Oct-23 08:25N 35°11' E 139°46'1011.1
2014-Oct-23 07:33N 35°20' E 139°43'1110.8
2014-Oct-23 06:33N 35°30' E 139°48'4 3.9
2014-Oct-23 05:33N 35°30' E 139°43'0 0.0
2014-Oct-23 04:33N 35°30' E 139°43'0 0.0
2014-Oct-23 03:34N 35°30' E 139°43'0 0.0
2014-Oct-23 02:33N 35°30' E 139°43'4 3.8
2014-Oct-23 01:33N 35°27' E 139°44'7 7.1
2014-Oct-23 00:33N 35°19' E 139°44'10 9.6
2014-Oct-22 23:33N 35°10' E 139°47'5 0.1
2014-Oct-21 08:33N 35°15' E 139°47'1010.2
2014-Oct-21 07:33N 35°25' E 139°43'5 4.9
2014-Oct-21 06:33N 35°30' E 139°43'1 0.6
2014-Oct-21 05:33N 35°30' E 139°43'0 0.0
2014-Oct-21 04:33N 35°30' E 139°43'0 0.0
2014-Oct-21 03:33N 35°30' E 139°43'0 0.0
2014-Oct-21 02:33N 35°30' E 139°43'0 0.0
2014-Oct-21 01:33N 35°30' E 139°43'0 0.0
2014-Oct-21 00:33N 35°30' E 139°43'0 0.0
2014-Oct-20 23:33N 35°30' E 139°43'0 0.0
2014-Oct-20 22:33N 35°30' E 139°43'0 0.0
2014-Oct-20 21:33N 35°30' E 139°43'1 1.4
2014-Oct-20 20:33N 35°29' E 139°42'6 5.9
2014-Oct-20 19:33N 35°23' E 139°45'0 0.0
2014-Oct-20 18:33N 35°23' E 139°45'0 0.0
2014-Oct-20 17:33N 35°23' E 139°45'0 0.0
2014-Oct-20 16:33N 35°23' E 139°45'0 0.1
2014-Oct-20 15:33N 35°23' E 139°45'0 0.0
2014-Oct-20 14:33N 35°23' E 139°45'5 5.1
2014-Oct-20 13:33N 35°18' E 139°44'7 0.2
2014-Oct-19 02:12N 35°11' E 139°46'711.0
2014-Oct-19 01:33N 35°18' E 139°44'10 9.8
2014-Oct-19 00:33N 35°28' E 139°47'4 3.9
2014-Oct-18 23:33N 35°30' E 139°43'0 0.0
2014-Oct-18 22:33N 35°30' E 139°43'0 0.0
2014-Oct-18 21:33N 35°30' E 139°43'0 0.0
2014-Oct-18 20:33N 35°30' E 139°43'5 4.9
2014-Oct-18 19:33N 35°25' E 139°44'2 2.2
2014-Oct-18 18:33N 35°23' E 139°44'0 0.0
2014-Oct-18 17:33N 35°23' E 139°44'0 0.0
2014-Oct-18 16:33N 35°23' E 139°44'0 0.1
2014-Oct-18 15:33N 35°23' E 139°44'8 8.5
2014-Oct-18 14:33N 35°15' E 139°47'4 0.1
2014-Oct-17 04:09N 35°11' E 139°46'711.1
2014-Oct-17 03:33N 35°17' E 139°45'10 9.6
2014-Oct-17 02:33N 35°27' E 139°46'4 4.0
2014-Oct-17 01:33N 35°30' E 139°43'0 0.0
2014-Oct-17 00:33N 35°30' E 139°43'0 0.0
2014-Oct-16 23:33N 35°30' E 139°43'0 0.0
2014-Oct-16 22:33N 35°30' E 139°43'0 0.0
2014-Oct-16 21:33N 35°30' E 139°43'0 0.0
2014-Oct-16 20:33N 35°30' E 139°43'4 4.3
2014-Oct-16 19:33N 35°26' E 139°44'2 2.4
2014-Oct-16 18:32N 35°24' E 139°45'0 0.0
2014-Oct-16 17:32N 35°24' E 139°45'0 0.0
2014-Oct-16 16:32N 35°24' E 139°45'7 7.4
2014-Oct-16 15:33N 35°16' E 139°46'  

Dump ship's entire track history